createdAt,value
2019-05-19T00:00:33.635Z,61.76
2019-05-19T00:03:04.396Z,61.96
2019-05-19T00:05:35.742Z,62.10
2019-05-19T00:08:07.580Z,62.45
2019-05-19T00:10:39.235Z,62.72
2019-05-19T00:13:11.087Z,62.56
2019-05-19T00:15:42.769Z,62.94
2019-05-19T00:18:14.559Z,62.77
2019-05-19T00:20:46.177Z,62.93
2019-05-19T00:23:17.836Z,63.03
2019-05-19T00:25:49.495Z,62.86
2019-05-19T00:28:21.363Z,61.90
2019-05-19T00:30:53.045Z,61.78
2019-05-19T00:33:24.988Z,61.33
2019-05-19T00:35:57.565Z,61.74
2019-05-19T00:38:29.383Z,62.48
2019-05-19T00:41:01.174Z,63.00
2019-05-19T00:43:33.042Z,62.92
2019-05-19T00:46:04.838Z,62.29
2019-05-19T00:48:36.862Z,62.62
2019-05-19T00:51:08.944Z,62.73
2019-05-19T00:53:40.357Z,62.65
2019-05-19T00:56:12.288Z,62.59
2019-05-19T00:58:44.580Z,62.62
2019-05-19T01:01:17.845Z,62.86
2019-05-19T01:03:49.784Z,62.62
2019-05-19T01:06:21.250Z,62.81
2019-05-19T01:08:52.771Z,62.51
2019-05-19T01:11:24.439Z,62.64
2019-05-19T01:13:55.836Z,62.92
2019-05-19T01:16:27.288Z,62.54
2019-05-19T01:18:59.073Z,62.66
2019-05-19T01:21:32.054Z,62.87
2019-05-19T01:24:03.635Z,62.89
2019-05-19T01:26:35.084Z,62.47
2019-05-19T01:29:07.868Z,62.37
2019-05-19T01:31:39.358Z,63.02
2019-05-19T01:34:11.044Z,62.95
2019-05-19T01:36:42.944Z,63.40
2019-05-19T01:39:14.596Z,63.51
2019-05-19T01:41:46.176Z,63.78
2019-05-19T01:44:17.803Z,63.90
2019-05-19T01:46:49.477Z,63.97
2019-05-19T01:49:21.226Z,63.18
2019-05-19T01:51:52.866Z,62.55
2019-05-19T01:54:24.545Z,62.55
2019-05-19T01:56:55.993Z,62.46
2019-05-19T01:59:27.546Z,62.72
2019-05-19T02:02:00.234Z,62.81
2019-05-19T02:04:31.886Z,62.76
2019-05-19T02:07:03.337Z,62.64
2019-05-19T02:09:35.015Z,62.89
2019-05-19T02:12:06.341Z,62.92
2019-05-19T02:14:37.884Z,62.37
2019-05-19T02:17:09.762Z,62.33
2019-05-19T02:19:41.537Z,62.27
2019-05-19T02:22:13.278Z,62.24
2019-05-19T02:24:45.239Z,62.18
2019-05-19T02:27:16.864Z,61.84
2019-05-19T02:29:48.587Z,61.46
2019-05-19T02:32:20.125Z,61.41
2019-05-19T02:34:51.328Z,61.20
2019-05-19T02:37:23.040Z,61.23
2019-05-19T02:39:54.673Z,61.26
2019-05-19T02:42:28.539Z,60.74
2019-05-19T02:45:02.050Z,60.24
2019-05-19T02:47:35.464Z,60.56
2019-05-19T02:50:08.020Z,59.66
2019-05-19T02:52:41.113Z,58.65
2019-05-19T02:55:12.809Z,58.87
2019-05-19T02:57:44.499Z,59.33
2019-05-19T03:00:17.140Z,59.49
2019-05-19T03:02:49.452Z,59.31
2019-05-19T03:05:22.401Z,59.23
2019-05-19T03:07:53.883Z,58.90
2019-05-19T03:10:25.512Z,58.75
2019-05-19T03:12:57.187Z,58.15
2019-05-19T03:15:29.355Z,58.85
2019-05-19T03:18:00.722Z,58.64
2019-05-19T03:20:32.241Z,58.07
2019-05-19T03:23:03.810Z,58.23
2019-05-19T03:25:35.453Z,57.10
2019-05-19T03:28:06.915Z,57.61
2019-05-19T03:30:43.142Z,57.74
2019-05-19T03:33:22.037Z,56.77
2019-05-19T03:35:53.512Z,57.10
2019-05-19T03:38:25.325Z,56.28
2019-05-19T03:40:57.094Z,56.68
2019-05-19T03:43:28.752Z,56.35
2019-05-19T03:46:00.492Z,56.11
2019-05-19T03:48:32.480Z,55.96
2019-05-19T03:51:03.914Z,56.05
2019-05-19T03:53:35.762Z,55.89
2019-05-19T03:56:07.158Z,55.49
2019-05-19T03:58:38.772Z,54.99
2019-05-19T04:01:10.369Z,55.50
2019-05-19T04:03:43.111Z,55.01
2019-05-19T04:06:14.460Z,55.40
2019-05-19T04:08:46.012Z,55.25
2019-05-19T04:11:17.587Z,54.80
2019-05-19T04:13:48.835Z,55.76
2019-05-19T04:16:20.553Z,55.85
2019-05-19T04:18:52.134Z,55.75
2019-05-19T04:21:23.309Z,55.46
2019-05-19T04:23:54.897Z,54.94
2019-05-19T04:26:26.587Z,54.90
2019-05-19T04:28:57.976Z,54.91
2019-05-19T04:31:29.795Z,54.71
2019-05-19T04:34:01.390Z,55.56
2019-05-19T04:36:32.952Z,54.91
2019-05-19T04:39:06.143Z,54.57
2019-05-19T04:41:40.217Z,54.61
2019-05-19T04:44:10.948Z,54.95
2019-05-19T04:46:42.427Z,54.51
2019-05-19T04:49:14.053Z,54.01
2019-05-19T04:51:45.660Z,53.99
2019-05-19T04:54:18.626Z,53.44
2019-05-19T04:56:50.003Z,53.25
2019-05-19T04:59:21.405Z,52.63
2019-05-19T05:01:56.092Z,52.60
2019-05-19T05:04:29.700Z,52.04
2019-05-19T05:07:01.428Z,51.56
2019-05-19T05:09:32.986Z,51.24
2019-05-19T05:12:04.844Z,51.14
2019-05-19T05:14:36.462Z,50.34
2019-05-19T05:17:07.966Z,50.23
2019-05-19T05:19:39.569Z,49.78
2019-05-19T05:22:21.630Z,49.49
2019-05-19T05:24:44.420Z,49.05
2019-05-19T05:27:19.475Z,49.29
2019-05-19T05:29:50.851Z,48.67
2019-05-19T05:32:22.292Z,47.87
2019-05-19T05:34:53.744Z,48.13
2019-05-19T05:37:25.470Z,47.46
2019-05-19T05:39:57.744Z,47.22
2019-05-19T05:42:32.000Z,46.63
2019-05-19T05:45:05.247Z,46.50
2019-05-19T05:47:36.706Z,46.85
2019-05-19T05:50:08.749Z,45.86
2019-05-19T05:52:40.011Z,45.84
2019-05-19T05:55:11.783Z,45.89
2019-05-19T05:57:43.177Z,44.66
2019-05-19T06:00:16.000Z,45.56
2019-05-19T06:02:47.603Z,44.36
2019-05-19T06:05:20.190Z,44.74
2019-05-19T06:07:51.825Z,44.66
2019-05-19T06:10:23.179Z,44.44
2019-05-19T06:12:54.919Z,44.81
2019-05-19T06:15:29.432Z,44.43
2019-05-19T06:18:01.195Z,44.19
2019-05-19T06:20:32.560Z,43.17
2019-05-19T06:23:04.361Z,43.05
2019-05-19T06:25:35.924Z,43.40
2019-05-19T06:28:07.726Z,44.00
2019-05-19T06:30:39.166Z,44.23
2019-05-19T06:33:10.868Z,43.62
2019-05-19T06:35:42.806Z,44.00
2019-05-19T06:38:14.992Z,42.68
2019-05-19T06:40:46.537Z,42.18
2019-05-19T06:43:18.324Z,41.12
2019-05-19T06:45:54.862Z,39.06
2019-05-19T06:48:26.387Z,38.06
2019-05-19T06:50:58.066Z,38.51
2019-05-19T06:53:29.602Z,37.05
2019-05-19T06:56:03.020Z,37.09
2019-05-19T06:58:34.751Z,37.77
2019-05-19T07:01:06.432Z,36.64
2019-05-19T07:03:38.232Z,37.15
2019-05-19T07:06:10.622Z,36.39
2019-05-19T07:08:42.126Z,35.60
2019-05-19T07:11:13.510Z,36.30
2019-05-19T07:13:45.177Z,36.08
2019-05-19T07:16:16.789Z,36.21
2019-05-19T07:18:48.457Z,36.57
2019-05-19T07:21:19.912Z,36.74
2019-05-19T07:23:51.345Z,36.94
2019-05-19T07:26:22.940Z,36.24
2019-05-19T07:28:54.549Z,34.91
2019-05-19T07:31:26.110Z,35.39
2019-05-19T07:33:57.694Z,35.84
2019-05-19T07:36:30.138Z,35.61
2019-05-19T07:39:01.586Z,35.12
2019-05-19T07:41:33.959Z,35.49
2019-05-19T07:44:06.858Z,35.66
2019-05-19T07:46:38.955Z,35.30
2019-05-19T07:49:10.674Z,35.87
2019-05-19T07:51:42.126Z,35.22
2019-05-19T07:54:14.597Z,35.14
2019-05-19T07:56:46.048Z,35.19
2019-05-19T07:59:17.521Z,35.47
2019-05-19T08:01:49.106Z,35.02
2019-05-19T08:04:20.926Z,35.92
2019-05-19T08:06:53.397Z,34.96
2019-05-19T08:09:24.947Z,35.28
2019-05-19T08:11:56.524Z,35.61
2019-05-19T08:14:27.938Z,35.21
2019-05-19T08:16:59.415Z,35.72
2019-05-19T08:19:30.895Z,34.64
2019-05-19T08:22:04.003Z,34.45
2019-05-19T08:24:36.271Z,34.38
2019-05-19T08:27:09.533Z,35.03
2019-05-19T08:29:41.249Z,35.00
2019-05-19T08:32:13.352Z,35.07
2019-05-19T08:34:45.051Z,34.78
2019-05-19T08:37:17.687Z,34.62
2019-05-19T08:39:51.582Z,35.18
2019-05-19T08:42:23.440Z,34.94
2019-05-19T08:44:56.984Z,35.10
2019-05-19T08:47:28.359Z,34.52
2019-05-19T08:49:59.898Z,34.56
2019-05-19T08:52:31.482Z,34.68
2019-05-19T08:55:02.968Z,34.42
2019-05-19T08:57:34.901Z,34.26
2019-05-19T09:00:08.432Z,34.56
2019-05-19T09:02:39.869Z,34.76
2019-05-19T09:05:13.696Z,34.52
2019-05-19T09:07:48.103Z,34.18
2019-05-19T09:10:22.346Z,34.37
2019-05-19T09:12:54.258Z,34.55
2019-05-19T09:15:25.630Z,33.27
2019-05-19T09:17:57.202Z,34.09
2019-05-19T09:20:29.821Z,34.77
2019-05-19T09:23:01.886Z,34.09
2019-05-19T09:25:33.277Z,33.78
2019-05-19T09:28:07.821Z,33.84
2019-05-19T09:30:40.194Z,33.93
2019-05-19T09:33:13.287Z,33.88
2019-05-19T09:35:46.543Z,32.14
2019-05-19T09:38:18.045Z,31.76
2019-05-19T09:40:50.465Z,32.11
2019-05-19T09:43:21.809Z,32.55
2019-05-19T09:45:53.792Z,32.24
2019-05-19T09:48:25.357Z,33.89
2019-05-19T09:50:56.955Z,33.20
2019-05-19T09:53:30.528Z,32.26
2019-05-19T09:56:05.682Z,31.96
2019-05-19T09:58:37.784Z,32.12
2019-05-19T10:01:09.811Z,31.66
2019-05-19T10:03:41.362Z,31.84
2019-05-19T10:06:12.912Z,32.37
2019-05-19T10:08:50.197Z,32.12
2019-05-19T10:11:49.524Z,32.80
2019-05-19T10:14:21.064Z,31.98
2019-05-19T10:16:53.964Z,31.24
2019-05-19T10:19:25.681Z,30.41
2019-05-19T10:21:58.193Z,31.39
2019-05-19T10:24:30.167Z,30.02
2019-05-19T10:27:01.605Z,28.79
2019-05-19T10:29:33.765Z,28.71
2019-05-19T10:32:05.244Z,27.67
2019-05-19T10:34:37.611Z,27.09
2019-05-19T10:37:09.118Z,26.16
2019-05-19T10:39:40.396Z,26.98
2019-05-19T10:42:12.775Z,25.71
2019-05-19T10:44:44.310Z,24.73
2019-05-19T10:47:15.946Z,24.51
2019-05-19T10:49:47.435Z,24.70
2019-05-19T10:52:19.042Z,25.39
2019-05-19T10:54:50.749Z,25.02
2019-05-19T10:57:22.454Z,24.70
2019-05-19T10:59:54.167Z,24.92
2019-05-19T11:02:25.827Z,24.40
2019-05-19T11:04:57.465Z,24.14
2019-05-19T11:07:30.018Z,24.71
2019-05-19T11:10:01.792Z,25.24
2019-05-19T11:12:34.483Z,24.57
2019-05-19T11:15:08.426Z,23.68
2019-05-19T11:17:39.947Z,24.23
2019-05-19T11:20:11.720Z,23.77
2019-05-19T11:22:43.065Z,22.66
2019-05-19T11:25:14.554Z,23.15
2019-05-19T11:27:46.299Z,22.49
2019-05-19T11:30:18.062Z,23.52
2019-05-19T11:32:49.810Z,23.60
2019-05-19T11:35:21.291Z,23.23
2019-05-19T11:37:52.940Z,22.70
2019-05-19T11:40:25.594Z,22.58
2019-05-19T11:42:57.313Z,21.91
2019-05-19T11:45:28.917Z,22.53
2019-05-19T11:48:01.032Z,22.02
2019-05-19T11:50:34.061Z,21.68
2019-05-19T11:53:05.272Z,20.84
2019-05-19T11:55:36.879Z,21.45
2019-05-19T11:58:09.057Z,21.36
2019-05-19T12:00:40.594Z,21.38
2019-05-19T12:03:11.881Z,21.07
2019-05-19T12:05:43.290Z,20.85
2019-05-19T12:08:14.863Z,21.93
2019-05-19T12:10:50.066Z,20.81
2019-05-19T12:13:22.328Z,19.92
2019-05-19T12:15:53.912Z,19.91
2019-05-19T12:18:25.373Z,20.70
2019-05-19T12:20:57.354Z,20.43
2019-05-19T12:23:28.994Z,20.44
2019-05-19T12:26:00.390Z,20.73
2019-05-19T12:28:31.886Z,20.94
2019-05-19T12:31:03.269Z,20.31
2019-05-19T12:33:35.211Z,20.39
2019-05-19T12:36:06.866Z,20.70
2019-05-19T12:38:39.228Z,19.82
2019-05-19T12:41:13.260Z,20.07
2019-05-19T12:43:44.558Z,20.82
2019-05-19T12:46:16.910Z,19.35
2019-05-19T12:48:48.802Z,19.78
2019-05-19T12:51:20.407Z,20.02
2019-05-19T12:53:51.782Z,19.34
2019-05-19T12:56:37.152Z,19.10
2019-05-19T12:58:57.504Z,19.07
2019-05-19T13:01:29.383Z,19.10
2019-05-19T13:04:00.785Z,19.57
2019-05-19T13:06:32.267Z,19.41
2019-05-19T13:09:04.879Z,19.12
2019-05-19T13:11:37.373Z,20.77
2019-05-19T13:14:09.004Z,20.81
2019-05-19T13:16:42.278Z,20.75
2019-05-19T13:19:13.764Z,21.21
2019-05-19T13:21:45.427Z,21.41
2019-05-19T13:24:16.774Z,20.71
2019-05-19T13:26:56.595Z,20.19
2019-05-19T13:29:21.280Z,20.18
2019-05-19T13:31:52.860Z,20.46
2019-05-19T13:34:24.445Z,21.29
2019-05-19T13:36:55.894Z,19.83
2019-05-19T13:39:27.705Z,20.28
2019-05-19T13:41:59.394Z,19.81
2019-05-19T13:44:30.798Z,21.05
2019-05-19T13:47:02.398Z,20.77
2019-05-19T13:49:33.971Z,21.40
2019-05-19T13:52:05.386Z,21.69
2019-05-19T13:54:36.735Z,21.88
2019-05-19T13:57:13.507Z,20.67
2019-05-19T13:59:44.932Z,21.14
2019-05-19T14:02:16.510Z,20.93
2019-05-19T14:04:47.943Z,21.74
2019-05-19T14:07:20.541Z,21.36
2019-05-19T14:09:52.356Z,21.89
2019-05-19T14:12:24.652Z,21.55
2019-05-19T14:14:56.186Z,22.19
2019-05-19T14:17:27.593Z,22.67
2019-05-19T14:19:59.148Z,22.81
2019-05-19T14:22:30.654Z,22.83
2019-05-19T14:25:02.316Z,22.72
2019-05-19T14:27:35.092Z,22.52
2019-05-19T14:30:10.475Z,22.29
2019-05-19T14:32:42.992Z,22.08
2019-05-19T14:35:15.024Z,21.87
2019-05-19T14:37:47.278Z,22.57
2019-05-19T14:40:19.560Z,22.34
2019-05-19T14:43:01.862Z,21.82
2019-05-19T14:45:36.580Z,22.85
2019-05-19T14:48:08.240Z,22.40
2019-05-19T14:50:39.682Z,21.91
2019-05-19T14:53:10.906Z,22.25
2019-05-19T14:55:42.557Z,22.28
2019-05-19T14:58:14.201Z,21.08
2019-05-19T15:00:46.562Z,21.11
2019-05-19T15:03:18.079Z,22.59
2019-05-19T15:05:49.661Z,22.96
2019-05-19T15:08:24.886Z,24.20
2019-05-19T15:10:56.508Z,26.06
2019-05-19T15:13:28.938Z,27.58
2019-05-19T15:16:00.692Z,29.54
2019-05-19T15:18:31.974Z,29.54
2019-05-19T15:21:03.885Z,29.89
2019-05-19T15:23:35.677Z,30.22
2019-05-19T15:26:07.810Z,30.93
2019-05-19T15:28:40.494Z,30.96
2019-05-19T15:31:11.906Z,31.25
2019-05-19T15:33:43.805Z,32.07
2019-05-19T15:36:15.867Z,32.72
2019-05-19T15:38:47.522Z,31.74
2019-05-19T15:41:19.201Z,32.04
2019-05-19T15:43:50.741Z,32.13
2019-05-19T15:46:22.493Z,31.96
2019-05-19T15:48:53.875Z,32.46
2019-05-19T15:51:28.996Z,32.42
2019-05-19T15:54:01.540Z,32.63
2019-05-19T15:56:32.986Z,32.99
2019-05-19T15:59:04.584Z,33.37
2019-05-19T16:01:36.247Z,33.42
2019-05-19T16:04:07.893Z,33.19
2019-05-19T16:06:39.495Z,32.96
2019-05-19T16:09:11.337Z,33.08
2019-05-19T16:11:42.753Z,32.97
2019-05-19T16:14:15.532Z,32.57
2019-05-19T16:16:47.113Z,33.09
2019-05-19T16:19:19.782Z,32.83
2019-05-19T16:21:51.581Z,33.11
2019-05-19T16:24:23.013Z,32.73
2019-05-19T16:26:54.559Z,33.32
2019-05-19T16:29:25.999Z,33.50
2019-05-19T16:31:57.516Z,32.94
2019-05-19T16:34:29.098Z,33.53
2019-05-19T16:37:00.651Z,33.04
2019-05-19T16:39:31.990Z,33.34
2019-05-19T16:42:03.686Z,33.59
2019-05-19T16:44:35.831Z,33.08
2019-05-19T16:47:07.255Z,33.20
2019-05-19T16:49:38.869Z,33.14
2019-05-19T16:52:10.535Z,33.37
2019-05-19T16:54:43.828Z,33.79
2019-05-19T16:57:15.328Z,33.83
2019-05-19T16:59:48.560Z,34.33
2019-05-19T17:02:20.335Z,34.75
2019-05-19T17:04:51.785Z,34.65
2019-05-19T17:07:23.296Z,34.89
2019-05-19T17:09:55.065Z,35.79
2019-05-19T17:12:28.713Z,35.90
2019-05-19T17:15:02.231Z,36.67
2019-05-19T17:17:35.457Z,36.91
2019-05-19T17:20:09.037Z,37.11
2019-05-19T17:22:40.408Z,37.27
2019-05-19T17:25:12.167Z,37.80
2019-05-19T17:27:43.430Z,37.98
2019-05-19T17:30:15.754Z,38.26
2019-05-19T17:32:47.157Z,38.86
2019-05-19T17:35:19.090Z,38.80
2019-05-19T17:37:50.477Z,39.33
2019-05-19T17:40:22.294Z,39.38
2019-05-19T17:42:54.093Z,39.57
2019-05-19T17:45:25.628Z,39.63
2019-05-19T17:48:09.256Z,39.77
2019-05-19T17:50:36.423Z,40.09
2019-05-19T17:53:07.865Z,40.09
2019-05-19T17:55:41.058Z,40.04
2019-05-19T17:58:12.714Z,40.37
2019-05-19T18:00:44.650Z,40.42
2019-05-19T18:03:16.184Z,40.49
2019-05-19T18:05:49.024Z,40.72
2019-05-19T18:08:20.535Z,40.73
2019-05-19T18:10:52.540Z,41.01
2019-05-19T18:13:24.379Z,41.17
2019-05-19T18:15:56.737Z,41.34
2019-05-19T18:18:28.261Z,41.58
2019-05-19T18:20:59.812Z,41.52
2019-05-19T18:23:31.476Z,41.17
2019-05-19T18:26:02.927Z,41.37
2019-05-19T18:28:34.543Z,41.56
2019-05-19T18:31:06.586Z,41.30
2019-05-19T18:33:38.048Z,41.31
2019-05-19T18:36:09.908Z,41.63
2019-05-19T18:38:41.392Z,41.61
2019-05-19T18:41:13.692Z,41.42
2019-05-19T18:43:46.303Z,41.44
2019-05-19T18:46:17.997Z,41.94
2019-05-19T18:48:49.455Z,41.54
2019-05-19T18:51:20.932Z,41.67
2019-05-19T18:53:52.871Z,42.02
2019-05-19T18:56:26.928Z,42.38
2019-05-19T18:58:58.398Z,42.48
2019-05-19T19:01:31.717Z,43.16
2019-05-19T19:04:03.438Z,43.52
2019-05-19T19:06:37.793Z,44.62
2019-05-19T19:09:09.458Z,45.73
2019-05-19T19:11:41.218Z,46.38
2019-05-19T19:14:12.723Z,46.95
2019-05-19T19:16:45.301Z,46.30
2019-05-19T19:19:16.936Z,46.25
2019-05-19T19:21:48.663Z,46.63
2019-05-19T19:24:20.257Z,46.99
2019-05-19T19:26:51.779Z,47.25
2019-05-19T19:29:25.977Z,47.55
2019-05-19T19:31:57.851Z,48.05
2019-05-19T19:34:29.836Z,48.40
2019-05-19T19:37:01.631Z,48.82
2019-05-19T19:39:33.330Z,48.91
2019-05-19T19:42:05.400Z,49.05
2019-05-19T19:44:38.395Z,49.11
2019-05-19T19:47:09.638Z,49.40
2019-05-19T19:49:41.370Z,49.63
2019-05-19T19:52:13.172Z,49.68
2019-05-19T19:54:45.079Z,49.60
2019-05-19T19:57:16.954Z,49.11
2019-05-19T19:59:48.364Z,49.39
2019-05-19T20:02:20.105Z,49.22
2019-05-19T20:04:51.844Z,49.13
2019-05-19T20:07:23.644Z,49.08
2019-05-19T20:09:55.318Z,49.29
2019-05-19T20:12:27.190Z,49.38
2019-05-19T20:14:59.711Z,49.86
2019-05-19T20:17:34.676Z,50.04
2019-05-19T20:20:06.780Z,50.65
2019-05-19T20:22:39.287Z,50.65
2019-05-19T20:25:11.045Z,50.81
2019-05-19T20:27:42.717Z,50.50
2019-05-19T20:30:14.518Z,50.52
2019-05-19T20:32:46.763Z,51.63
2019-05-19T20:35:18.537Z,52.49
2019-05-19T20:37:51.575Z,53.04
2019-05-19T20:40:23.488Z,52.65
2019-05-19T20:42:56.964Z,52.75
2019-05-19T20:45:29.009Z,52.48
2019-05-19T20:48:00.767Z,52.00
2019-05-19T20:50:32.525Z,51.39
2019-05-19T20:53:04.499Z,50.30
2019-05-19T20:55:38.773Z,49.43
2019-05-19T20:58:10.488Z,49.75
2019-05-19T21:00:50.488Z,49.24
2019-05-19T21:03:16.235Z,49.81
2019-05-19T21:05:47.793Z,50.83
2019-05-19T21:08:19.576Z,50.86
2019-05-19T21:10:51.170Z,51.03
2019-05-19T21:13:22.890Z,51.36
2019-05-19T21:15:55.242Z,51.23
2019-05-19T21:18:27.859Z,51.18
2019-05-19T21:20:59.261Z,51.20
2019-05-19T21:23:31.020Z,51.17
2019-05-19T21:26:02.600Z,51.76
2019-05-19T21:28:34.335Z,50.97
2019-05-19T21:31:06.493Z,51.29
2019-05-19T21:33:38.264Z,51.51
2019-05-19T21:36:09.823Z,51.68
2019-05-19T21:38:41.397Z,51.84
2019-05-19T21:41:13.106Z,51.56
2019-05-19T21:43:44.793Z,51.26
2019-05-19T21:46:16.343Z,51.23
2019-05-19T21:48:48.118Z,51.25
2019-05-19T21:51:19.835Z,51.44
2019-05-19T21:53:51.620Z,51.40
2019-05-19T21:56:23.235Z,51.40
2019-05-19T21:58:55.043Z,51.44
2019-05-19T22:01:26.510Z,51.67
2019-05-19T22:03:57.950Z,51.77
2019-05-19T22:06:31.236Z,51.33
2019-05-19T22:09:04.331Z,51.39
2019-05-19T22:11:35.989Z,51.37
2019-05-19T22:14:07.303Z,51.57
2019-05-19T22:16:39.042Z,51.54
2019-05-19T22:19:11.678Z,51.49
2019-05-19T22:21:43.232Z,51.16
2019-05-19T22:24:14.746Z,51.50
2019-05-19T22:26:46.652Z,51.14
2019-05-19T22:29:18.347Z,51.18
2019-05-19T22:31:50.212Z,51.01
2019-05-19T22:34:21.800Z,50.65
2019-05-19T22:36:53.180Z,50.83
2019-05-19T22:39:24.863Z,51.13
2019-05-19T22:41:56.703Z,51.48
2019-05-19T22:44:28.264Z,51.23
2019-05-19T22:46:59.869Z,51.81
2019-05-19T22:49:31.282Z,51.63
2019-05-19T22:52:02.646Z,51.88
2019-05-19T22:54:34.149Z,52.08
2019-05-19T22:57:05.809Z,52.12
2019-05-19T22:59:37.104Z,52.31
2019-05-19T23:02:09.445Z,52.17
2019-05-19T23:04:40.828Z,52.79
2019-05-19T23:07:12.546Z,52.72
2019-05-19T23:09:44.087Z,53.32
2019-05-19T23:12:15.643Z,53.24
2019-05-19T23:14:47.032Z,53.29
2019-05-19T23:17:18.419Z,53.56
2019-05-19T23:19:50.885Z,54.06
2019-05-19T23:22:22.488Z,53.76
2019-05-19T23:24:54.036Z,54.06
2019-05-19T23:27:25.792Z,53.95
2019-05-19T23:29:57.247Z,54.49
2019-05-19T23:32:29.212Z,54.75
2019-05-19T23:35:00.863Z,54.03
2019-05-19T23:37:32.398Z,53.97
2019-05-19T23:40:08.275Z,54.58
2019-05-19T23:42:39.652Z,54.26
2019-05-19T23:45:11.120Z,54.03
2019-05-19T23:47:42.397Z,53.80
2019-05-19T23:50:14.304Z,53.84
2019-05-19T23:52:45.741Z,53.93
2019-05-19T23:55:17.437Z,54.02
2019-05-19T23:57:49.167Z,54.33
